Sunday, May 27, 2018, 7:40 AM MDT
Back to Local

KSLC, Salt Lake City International Airport

Location: Salt Lake City, UT, United States Lat: 40.783
Local Time: 7:40 AM MDT (13:40 GMT) Lon: -111.967
Time Zone: US/Mountain Elev: 4225 ft

Show me the last for .
Show Decoded

2018-05-27 06:54 METAR KSLC 271254Z 14007KT 10SM FEW039 BKN070 BKN110 15/11 A2989 RMK A02 RAE46
                 SLP074 CB DSNT SW-NW P0001 T01500106 =
2018-05-27 05:54 METAR KSLC 271154Z 35008KT 10SM -RA BKN075 BKN095 OVC150 16/09 A2986 RMK A02
                 RAB21 SLP063 CB DSNT S AND W AND NW P0000 60000 T01610089 10189 20161 53020 =
2018-05-27 04:54 METAR KSLC 271054Z 29005KT 10SM FEW095 BKN150 17/06 A2985 RMK A02 SLP054
                 T01720061 =
2018-05-27 03:54 METAR KSLC 270954Z 32006KT 10SM FEW100 BKN150 17/08 A2981 RMK A02 SLP043
                 T01670078 =
2018-05-27 02:54 METAR KSLC 270854Z 31007KT 10SM FEW100 BKN150 17/07 A2980 RMK A02 SLP037
                 T01670072 50001 =
2018-05-27 01:54 METAR KSLC 270754Z 27008G15KT 10SM BKN150 18/08 A2981 RMK A02 SLP040 T01780078 =
2018-05-27 00:54 METAR KSLC 270654Z 28010G22KT 10SM BKN150 18/08 A2979 RMK A02 SLP034 T01830083
                 402890161 =
2018-05-26 23:54 METAR KSLC 270554Z 25008G18KT 10SM BKN150 19/11 A2979 RMK A02 SLP036 T01890111
                 10267 20189 53009 =
2018-05-26 22:54 METAR KSLC 270454Z 28003KT 10SM FEW090 BKN150 21/04 A2978 =
2018-05-26 21:54 METAR KSLC 270354Z 21004KT 10SM FEW090 BKN150 22/M01 A2977 =
2018-05-26 20:54 METAR KSLC 270254Z 14007KT 10SM FEW090 BKN120 BKN180 24/M02 A2976 RMK VIRGA =
2018-05-26 19:54 METAR KSLC 270154Z 07008KT 10SM FEW090 BKN110 BKN180 25/M03 A2975 RMK VIRGA =
2018-05-26 18:54 METAR KSLC 270054Z 02006KT 10SM FEW090 BKN120 26/M04 A2976 RMK VIRGA SH DSNT N
                 AND S =
2018-05-26 17:54 METAR KSLC 262354Z 30013KT 10SM FEW090 SCT120 BKN150 BKN200 27/M07 A2975 RMK
                 VIRGA TCU DSNT N SH DSNT S =
2018-05-26 16:54 METAR KSLC 262254Z 33017KT 10SM FEW095TCU SCT140 BKN230 28/M04 A2972 RMK VIRGA
                 CB DSNT SE TCU W =
2018-05-26 15:54 METAR KSLC 262154Z 34014G19KT 10SM FEW095 SCT250 28/M05 A2974 RMK CB DSNT SE =
2018-05-26 14:54 METAR KSLC 262054Z 32013KT 10SM FEW150 FEW250 28/M04 A2975 RMK A02 SLP018
                 T02831039 56020 =
2018-05-26 13:54 METAR KSLC 261954Z 30008G17KT 10SM FEW150 FEW250 28/M05 A2976 RMK A02 SLP021
                 T02831050 =
2018-05-26 12:54 METAR KSLC 261854Z 22007KT 10SM FEW140 FEW250 27/M06 A2980 RMK A02 SLP035
                 T02671061 =
2018-05-26 11:54 METAR KSLC 261754Z 19010G16KT 10SM FEW130 26/M06 A2982 RMK A02 SLP039 T02611061
                 10261 20161 56008 =
2018-05-26 10:54 METAR KSLC 261654Z 18010KT 10SM FEW250 26/M06 A2982 RMK A02 SLP042 T02561056 =
2018-05-26 09:54 METAR KSLC 261554Z 16013KT 10SM CLR 24/M04 A2983 RMK A02 SLP042 T02441044 =
2018-05-26 08:54 METAR KSLC 261454Z 17014KT 10SM CLR 23/M03 A2984 RMK A02 SLP046 T02331028 50000
                 =
2018-05-26 07:54 METAR KSLC 261354Z 10007KT 10SM FEW180 19/02 A2986 RMK A02 SLP053 T01940022 =

Support USWX by starting your Amazon purchase here.